Time;durP1;ratioP1;P1;durP2;ratioP2;P2;SDS_P1;SDS_P2;PMS_P1;PMS_P2;Temp;Humidity;BMP_temperature;BMP_pressure;BME280_temperature;BME280_humidity;BME280_pressure;Samples;Min_cycle;Max_cycle;Signal;HPM_P1;HPM_P2
2021/12/09 00:02:15;;;;;;;26.17;12.25;;;;;;;;;;5072919;28;20038;-81
2021/12/09 00:04:41;;;;;;;21.38;11.65;;;;;;;;;;5073694;28;20059;-82
2021/12/09 00:07:07;;;;;;;29.10;14.48;;;;;;;;;;5071859;28;20515;-83
2021/12/09 00:09:33;;;;;;;22.15;10.98;;;;;;;;;;5073309;28;20043;-83
2021/12/09 00:11:59;;;;;;;19.23;10.50;;;;;;;;;;5072784;28;20422;-84
2021/12/09 00:14:27;;;;;;;21.27;10.63;;;;;;;;;;5073135;28;20498;-83
2021/12/09 00:16:56;;;;;;;18.60;10.00;;;;;;;;;;5073368;28;20103;-82
2021/12/09 00:19:22;;;;;;;29.20;16.20;;;;;;;;;;5073147;28;20021;-82
2021/12/09 00:21:47;;;;;;;26.80;15.10;;;;;;;;;;5071469;28;20033;-83
2021/12/09 00:24:13;;;;;;;26.23;13.77;;;;;;;;;;5072884;28;20095;-82
2021/12/09 00:26:39;;;;;;;26.42;15.82;;;;;;;;;;5073329;28;20429;-82
2021/12/09 00:29:08;;;;;;;29.42;14.32;;;;;;;;;;5067584;28;20032;-82
2021/12/09 00:31:34;;;;;;;23.00;12.95;;;;;;;;;;5087410;28;20054;-84
2021/12/09 00:34:04;;;;;;;26.00;13.13;;;;;;;;;;5072210;28;20516;-84
2021/12/09 00:36:39;;;;;;;22.83;13.23;;;;;;;;;;5073110;28;20021;-82
2021/12/09 00:39:06;;;;;;;20.15;11.38;;;;;;;;;;5073029;28;20055;-82
2021/12/09 00:41:32;;;;;;;20.42;11.20;;;;;;;;;;5072136;28;20039;-82
2021/12/09 00:43:58;;;;;;;18.77;10.07;;;;;;;;;;5072906;28;20040;-82
2021/12/09 00:46:24;;;;;;;23.08;10.70;;;;;;;;;;5070693;28;20171;-82
2021/12/09 00:48:49;;;;;;;18.20;9.60;;;;;;;;;;5070775;28;20036;-82
2021/12/09 00:51:15;;;;;;;21.02;10.07;;;;;;;;;;5071530;28;20028;-82
2021/12/09 00:53:41;;;;;;;22.13;11.43;;;;;;;;;;5072270;28;20031;-82
2021/12/09 00:56:09;;;;;;;21.02;9.98;;;;;;;;;;5070677;28;20353;-82
2021/12/09 00:58:36;;;;;;;20.25;11.60;;;;;;;;;;5072057;28;20142;-82
2021/12/09 01:01:01;;;;;;;19.55;10.00;;;;;;;;;;5072091;28;20027;-82
2021/12/09 01:03:27;;;;;;;18.48;9.82;;;;;;;;;;5071678;28;20383;-81
2021/12/09 01:05:54;;;;;;;17.83;10.43;;;;;;;;;;5071863;28;20161;-82
2021/12/09 01:08:19;;;;;;;19.40;9.23;;;;;;;;;;5071560;28;20468;-81
2021/12/09 01:10:45;;;;;;;18.73;9.75;;;;;;;;;;5071678;28;20059;-81
2021/12/09 01:13:12;;;;;;;17.88;9.93;;;;;;;;;;5071546;28;20029;-81
2021/12/09 01:15:38;;;;;;;18.42;9.95;;;;;;;;;;5070558;28;20035;-82
2021/12/09 01:18:04;;;;;;;21.95;9.73;;;;;;;;;;5072371;28;20115;-82
2021/12/09 01:20:29;;;;;;;20.00;9.82;;;;;;;;;;5072189;28;20510;-82
2021/12/09 01:22:59;;;;;;;16.30;9.13;;;;;;;;;;5071038;28;20020;-81
2021/12/09 01:25:26;;;;;;;23.05;9.95;;;;;;;;;;5072134;28;20063;-81
2021/12/09 01:27:55;;;;;;;23.00;10.45;;;;;;;;;;5071056;28;20490;-82
2021/12/09 01:30:22;;;;;;;23.55;10.02;;;;;;;;;;5072037;28;20028;-82
2021/12/09 01:32:53;;;;;;;19.80;9.90;;;;;;;;;;5071691;28;20028;-83
2021/12/09 01:35:34;;;;;;;22.15;10.23;;;;;;;;;;5072105;28;20031;-82
2021/12/09 01:38:10;;;;;;;18.98;11.13;;;;;;;;;;5070857;28;20115;-83
2021/12/09 01:40:36;;;;;;;23.17;11.77;;;;;;;;;;5070952;28;20456;-82
2021/12/09 01:43:02;;;;;;;20.05;10.05;;;;;;;;;;5070006;28;20068;-83
2021/12/09 01:45:28;;;;;;;22.05;9.68;;;;;;;;;;5071276;28;20024;-82
2021/12/09 01:47:54;;;;;;;18.48;10.52;;;;;;;;;;5069476;28;20528;-81
2021/12/09 01:50:20;;;;;;;19.60;10.70;;;;;;;;;;5072148;28;20029;-81
2021/12/09 01:52:46;;;;;;;24.13;10.15;;;;;;;;;;5071345;28;20107;-82
2021/12/09 01:55:13;;;;;;;25.17;11.63;;;;;;;;;;5070406;28;20486;-82
2021/12/09 01:57:39;;;;;;;23.90;10.75;;;;;;;;;;5071483;28;20024;-82
2021/12/09 02:00:08;;;;;;;19.95;11.32;;;;;;;;;;5071670;28;20035;-82
2021/12/09 02:02:33;;;;;;;25.35;10.77;;;;;;;;;;5070455;28;20023;-82
2021/12/09 02:04:59;;;;;;;22.20;11.57;;;;;;;;;;5071408;28;20480;-80
2021/12/09 02:07:24;;;;;;;24.20;12.05;;;;;;;;;;5071230;28;20031;-80
2021/12/09 02:09:50;;;;;;;16.65;9.50;;;;;;;;;;5070563;28;20032;-82
2021/12/09 02:12:15;;;;;;;19.08;11.23;;;;;;;;;;5070119;28;20093;-81
2021/12/09 02:14:43;;;;;;;21.40;11.10;;;;;;;;;;5071356;28;20028;-80
2021/12/09 02:17:10;;;;;;;21.50;11.52;;;;;;;;;;5069800;28;20101;-82
2021/12/09 02:19:39;;;;;;;20.73;11.07;;;;;;;;;;5071607;28;20025;-82
2021/12/09 02:22:05;;;;;;;26.20;12.03;;;;;;;;;;5086383;28;20082;-82
2021/12/09 02:24:30;;;;;;;21.77;11.30;;;;;;;;;;5071008;28;20028;-82
2021/12/09 02:26:55;;;;;;;24.23;11.27;;;;;;;;;;5068764;28;20059;-81
2021/12/09 02:29:21;;;;;;;21.77;11.05;;;;;;;;;;5070374;28;20375;-82
2021/12/09 02:31:47;;;;;;;20.70;10.60;;;;;;;;;;5069358;28;20401;-82
2021/12/09 02:34:13;;;;;;;20.73;10.88;;;;;;;;;;5071166;28;20044;-82
2021/12/09 02:36:41;;;;;;;20.83;11.32;;;;;;;;;;5070852;28;20024;-83
2021/12/09 02:39:09;;;;;;;23.20;11.25;;;;;;;;;;5071078;28;20449;-81
2021/12/09 02:41:36;;;;;;;20.33;10.65;;;;;;;;;;5067080;28;20166;-82
2021/12/09 02:44:05;;;;;;;23.42;11.48;;;;;;;;;;5071047;28;20380;-83
2021/12/09 02:46:36;;;;;;;18.00;10.73;;;;;;;;;;5065942;28;20457;-82
2021/12/09 02:49:13;;;;;;;21.27;11.68;;;;;;;;;;5066774;28;20472;-82
2021/12/09 02:51:39;;;;;;;22.17;11.45;;;;;;;;;;5065621;28;20048;-85
2021/12/09 02:54:07;;;;;;;19.35;10.88;;;;;;;;;;5068588;28;20078;-82
2021/12/09 02:56:34;;;;;;;18.15;10.27;;;;;;;;;;5070028;28;20301;-83
2021/12/09 02:58:59;;;;;;;21.25;10.38;;;;;;;;;;5069117;28;20054;-83
2021/12/09 03:01:57;;;;;;;19.27;10.23;;;;;;;;;;5068716;28;20537;-82
2021/12/09 03:04:46;;;;;;;24.23;11.13;;;;;;;;;;5070614;28;20024;-82
2021/12/09 03:07:26;;;;;;;20.67;10.50;;;;;;;;;;5071422;28;20041;-82
2021/12/09 03:09:59;;;;;;;25.83;12.82;;;;;;;;;;5090611;28;20043;-83
2021/12/09 03:12:35;;;;;;;23.02;11.77;;;;;;;;;;5073937;28;20586;-82
2021/12/09 03:15:04;;;;;;;27.75;12.60;;;;;;;;;;5074985;28;20024;-79
2021/12/09 03:17:29;;;;;;;25.25;11.52;;;;;;;;;;5073551;28;20515;-81
2021/12/09 03:19:55;;;;;;;24.98;11.25;;;;;;;;;;5074992;28;20025;-81
2021/12/09 03:22:21;;;;;;;25.63;12.13;;;;;;;;;;5089032;28;20024;-81
2021/12/09 03:24:48;;;;;;;26.23;11.95;;;;;;;;;;5073024;28;20031;-82
2021/12/09 03:27:14;;;;;;;22.08;11.65;;;;;;;;;;5074868;28;20050;-81
2021/12/09 03:29:40;;;;;;;22.13;11.00;;;;;;;;;;5074564;28;20036;-81
2021/12/09 03:32:10;;;;;;;25.67;13.35;;;;;;;;;;5071678;28;20091;-81
2021/12/09 03:34:36;;;;;;;22.48;11.05;;;;;;;;;;5074708;28;20056;-81
2021/12/09 03:37:07;;;;;;;19.48;10.40;;;;;;;;;;5073187;28;20031;-81
2021/12/09 03:39:36;;;;;;;21.95;11.63;;;;;;;;;;5074588;28;20576;-80
2021/12/09 03:42:04;;;;;;;22.17;11.07;;;;;;;;;;5074231;28;20032;-81
2021/12/09 03:44:30;;;;;;;19.13;10.00;;;;;;;;;;5074012;28;20031;-81
2021/12/09 03:47:00;;;;;;;15.40;8.32;;;;;;;;;;5073141;28;20361;-80
2021/12/09 03:49:25;;;;;;;17.83;9.32;;;;;;;;;;5074291;28;20480;-81
2021/12/09 03:51:52;;;;;;;20.83;10.57;;;;;;;;;;5072678;28;20028;-82
2021/12/09 03:54:18;;;;;;;16.70;9.80;;;;;;;;;;5073972;28;20032;-82
2021/12/09 03:56:44;;;;;;;17.20;9.48;;;;;;;;;;5073313;28;20028;-80
2021/12/09 03:59:11;;;;;;;17.52;10.20;;;;;;;;;;5072459;28;20028;-81
2021/12/09 04:01:39;;;;;;;14.02;7.55;;;;;;;;;;5073759;28;20026;-81
2021/12/09 04:04:05;;;;;;;17.83;9.98;;;;;;;;;;5072464;28;20476;-82
2021/12/09 04:06:31;;;;;;;25.50;12.38;;;;;;;;;;5072133;28;20048;-83
2021/12/09 04:08:58;;;;;;;21.02;11.57;;;;;;;;;;5072086;28;20024;-82
2021/12/09 04:11:25;;;;;;;21.65;11.45;;;;;;;;;;5073461;28;20032;-81
2021/12/09 04:13:50;;;;;;;19.83;10.68;;;;;;;;;;5073332;28;20032;-82
2021/12/09 04:16:16;;;;;;;24.30;12.35;;;;;;;;;;5073098;28;20028;-82
2021/12/09 04:18:44;;;;;;;24.65;13.77;;;;;;;;;;5072947;28;20036;-81
2021/12/09 04:21:10;;;;;;;31.38;15.85;;;;;;;;;;5073649;28;20062;-82
2021/12/09 04:23:36;;;;;;;29.65;16.63;;;;;;;;;;5073263;28;21062;-84
2021/12/09 04:26:02;;;;;;;27.92;15.13;;;;;;;;;;5071343;28;20147;-82
2021/12/09 04:28:27;;;;;;;35.78;17.35;;;;;;;;;;5071496;28;20029;-83
2021/12/09 04:30:53;;;;;;;28.73;15.98;;;;;;;;;;5071327;28;20460;-84
2021/12/09 04:33:19;;;;;;;27.65;14.85;;;;;;;;;;5072281;28;20033;-83
2021/12/09 04:35:44;;;;;;;34.10;15.60;;;;;;;;;;5073353;28;20432;-81
2021/12/09 04:38:10;;;;;;;64.43;20.92;;;;;;;;;;5072837;28;20060;-83
2021/12/09 04:40:36;;;;;;;35.97;17.52;;;;;;;;;;5072627;28;20036;-84
2021/12/09 04:43:02;;;;;;;29.30;15.95;;;;;;;;;;5072267;28;20056;-82
2021/12/09 04:45:30;;;;;;;35.33;17.30;;;;;;;;;;5072448;28;20531;-83
2021/12/09 04:47:57;;;;;;;35.05;15.15;;;;;;;;;;5072454;28;20062;-83
2021/12/09 04:50:24;;;;;;;33.65;16.88;;;;;;;;;;5071584;28;20028;-83
2021/12/09 04:52:49;;;;;;;32.13;15.20;;;;;;;;;;5071034;28;20472;-84
2021/12/09 04:55:15;;;;;;;33.72;16.08;;;;;;;;;;5071058;28;20031;-82
2021/12/09 04:57:43;;;;;;;43.70;15.60;;;;;;;;;;5070427;28;20037;-83
2021/12/09 05:00:12;;;;;;;33.15;15.45;;;;;;;;;;5070904;28;20028;-82
2021/12/09 05:03:03;;;;;;;34.97;15.43;;;;;;;;;;5071339;28;20082;-81
2021/12/09 05:05:40;;;;;;;32.47;14.52;;;;;;;;;;5070304;28;20045;-83
2021/12/09 05:08:08;;;;;;;33.63;15.38;;;;;;;;;;5070338;28;20111;-82
2021/12/09 05:10:50;;;;;;;54.88;15.50;;;;;;;;;;5072106;28;20012;-82
2021/12/09 05:13:15;;;;;;;37.20;15.38;;;;;;;;;;5073309;28;20043;-81
2021/12/09 05:15:41;;;;;;;39.95;17.38;;;;;;;;;;5073137;28;20024;-82
2021/12/09 05:18:08;;;;;;;36.42;15.80;;;;;;;;;;5070939;28;20081;-84
2021/12/09 05:20:33;;;;;;;63.33;21.08;;;;;;;;;;5072263;28;20020;-83
2021/12/09 05:22:59;;;;;;;40.10;18.35;;;;;;;;;;5067513;28;20040;-82
2021/12/09 05:25:24;;;;;;;41.13;18.13;;;;;;;;;;5071488;28;20032;-83
2021/12/09 05:27:50;;;;;;;60.03;20.25;;;;;;;;;;5070993;28;20036;-83
2021/12/09 05:30:23;;;;;;;42.10;18.45;;;;;;;;;;5070900;28;20036;-83
2021/12/09 05:32:48;;;;;;;40.50;16.83;;;;;;;;;;5069151;28;20028;-83
2021/12/09 05:35:15;;;;;;;44.78;20.33;;;;;;;;;;5070662;28;20024;-83
2021/12/09 05:37:40;;;;;;;39.97;19.33;;;;;;;;;;5070849;28;20086;-83
2021/12/09 05:40:06;;;;;;;45.63;19.20;;;;;;;;;;5066138;28;20021;-82
2021/12/09 05:42:32;;;;;;;39.08;19.33;;;;;;;;;;5063752;28;20035;-83
2021/12/09 05:44:59;;;;;;;38.65;18.42;;;;;;;;;;5068703;28;20021;-82
2021/12/09 05:47:25;;;;;;;37.97;18.48;;;;;;;;;;5068705;28;20025;-83
2021/12/09 05:49:50;;;;;;;42.13;19.10;;;;;;;;;;5071982;28;20039;-82
2021/12/09 05:52:16;;;;;;;43.88;18.70;;;;;;;;;;5069717;28;20547;-80
2021/12/09 05:54:42;;;;;;;33.13;16.15;;;;;;;;;;5069931;28;20495;-82
2021/12/09 05:57:08;;;;;;;33.53;17.65;;;;;;;;;;5065427;28;20033;-82
2021/12/09 05:59:34;;;;;;;39.83;19.67;;;;;;;;;;5071050;28;20476;-80
2021/12/09 06:01:59;;;;;;;47.97;21.45;;;;;;;;;;5070187;28;20039;-81
2021/12/09 06:04:25;;;;;;;38.15;19.17;;;;;;;;;;5069540;28;20055;-81
2021/12/09 06:06:51;;;;;;;49.60;25.15;;;;;;;;;;5068791;28;20040;-80
2021/12/09 06:09:17;;;;;;;49.95;21.30;;;;;;;;;;5070149;28;20039;-81
2021/12/09 06:11:46;;;;;;;52.65;27.45;;;;;;;;;;5070515;28;20530;-81
2021/12/09 06:14:12;;;;;;;33.13;17.25;;;;;;;;;;5071182;28;20567;-82
2021/12/09 06:16:38;;;;;;;44.05;22.88;;;;;;;;;;5068268;28;20046;-82
2021/12/09 06:19:04;;;;;;;35.38;18.48;;;;;;;;;;5069624;28;20040;-81
2021/12/09 06:21:30;;;;;;;35.17;19.58;;;;;;;;;;5071364;28;20028;-83
2021/12/09 06:23:57;;;;;;;64.68;31.83;;;;;;;;;;5069301;28;20024;-81
2021/12/09 06:26:23;;;;;;;62.95;33.50;;;;;;;;;;5070796;28;20024;-83
2021/12/09 06:28:49;;;;;;;61.33;31.58;;;;;;;;;;5071205;28;20069;-81
2021/12/09 06:31:15;;;;;;;64.60;33.95;;;;;;;;;;5071005;28;20024;-81
2021/12/09 06:33:40;;;;;;;63.00;31.75;;;;;;;;;;5069853;28;20054;-82
2021/12/09 06:36:06;;;;;;;47.85;25.25;;;;;;;;;;5070829;28;20132;-80
2021/12/09 06:38:32;;;;;;;55.42;29.27;;;;;;;;;;5070224;28;20025;-84
2021/12/09 06:40:58;;;;;;;60.60;27.60;;;;;;;;;;5068802;28;20096;-81
2021/12/09 06:43:24;;;;;;;72.53;29.30;;;;;;;;;;5070178;28;20111;-82
2021/12/09 06:45:53;;;;;;;76.60;29.10;;;;;;;;;;5069317;28;20074;-82
2021/12/09 06:48:19;;;;;;;64.63;27.75;;;;;;;;;;5070345;28;20070;-82
2021/12/09 06:50:44;;;;;;;187.80;34.85;;;;;;;;;;5071046;28;20024;-83
2021/12/09 06:53:12;;;;;;;96.75;28.92;;;;;;;;;;5070618;28;20104;-81
2021/12/09 06:55:38;;;;;;;58.67;27.60;;;;;;;;;;5065946;28;20479;-84
2021/12/09 06:58:04;;;;;;;71.13;28.67;;;;;;;;;;5067802;28;20137;-85
2021/12/09 07:00:32;;;;;;;74.03;33.20;;;;;;;;;;5070961;28;20020;-82
2021/12/09 07:02:57;;;;;;;73.60;32.25;;;;;;;;;;5070980;28;20025;-81
2021/12/09 07:05:25;;;;;;;84.00;35.85;;;;;;;;;;5070792;28;20047;-82
2021/12/09 07:07:51;;;;;;;68.40;30.30;;;;;;;;;;5070270;28;20025;-85
2021/12/09 07:10:19;;;;;;;136.68;37.13;;;;;;;;;;5071085;28;20029;-85
2021/12/09 07:12:46;;;;;;;101.90;34.97;;;;;;;;;;5070513;28;20040;-82
2021/12/09 07:15:14;;;;;;;124.70;37.60;;;;;;;;;;5072300;28;20361;-85
2021/12/09 07:17:40;;;;;;;102.00;36.75;;;;;;;;;;5072408;28;20087;-84
2021/12/09 07:20:09;;;;;;;90.90;38.25;;;;;;;;;;5070779;28;20036;-82
2021/12/09 07:22:35;;;;;;;116.22;43.63;;;;;;;;;;5070589;28;20024;-83
2021/12/09 07:25:02;;;;;;;94.10;40.92;;;;;;;;;;5071851;28;20024;-81
2021/12/09 07:27:27;;;;;;;109.20;43.38;;;;;;;;;;5069791;28;20376;-84
2021/12/09 07:29:53;;;;;;;82.38;35.45;;;;;;;;;;5070713;28;20086;-82
2021/12/09 07:32:18;;;;;;;90.30;37.70;;;;;;;;;;5068451;28;20070;-81
2021/12/09 07:34:44;;;;;;;90.88;43.22;;;;;;;;;;5070225;28;20472;-84
2021/12/09 07:37:09;;;;;;;89.90;37.67;;;;;;;;;;5070197;28;20103;-84
2021/12/09 07:39:35;;;;;;;70.28;33.92;;;;;;;;;;5070660;28;20108;-83
2021/12/09 07:42:01;;;;;;;89.22;38.95;;;;;;;;;;5066970;28;20431;-83
2021/12/09 07:44:29;;;;;;;69.95;35.90;;;;;;;;;;5070594;28;20447;-83
2021/12/09 07:46:56;;;;;;;96.13;42.45;;;;;;;;;;5069578;28;20028;-84
2021/12/09 07:49:23;;;;;;;86.47;34.75;;;;;;;;;;5071978;28;20021;-82
2021/12/09 07:51:53;;;;;;;116.00;63.38;;;;;;;;;;5071096;28;20467;-82
2021/12/09 07:54:18;;;;;;;81.93;40.33;;;;;;;;;;5075419;28;20529;-83
2021/12/09 07:56:44;;;;;;;104.30;43.45;;;;;;;;;;5074382;28;20036;-85
2021/12/09 07:59:11;;;;;;;135.98;44.30;;;;;;;;;;5074726;28;20086;-83
2021/12/09 08:01:38;;;;;;;93.53;39.67;;;;;;;;;;5073593;28;20555;-83
2021/12/09 08:04:04;;;;;;;135.63;60.13;;;;;;;;;;5074320;28;20109;-83
2021/12/09 08:06:30;;;;;;;124.47;53.60;;;;;;;;;;5074188;28;20066;-84
2021/12/09 08:08:55;;;;;;;117.70;48.90;;;;;;;;;;5074797;28;20027;-82
2021/12/09 08:11:21;;;;;;;121.30;52.50;;;;;;;;;;5073878;28;20031;-82
2021/12/09 08:13:46;;;;;;;146.63;57.45;;;;;;;;;;5072703;28;20085;-82
2021/12/09 08:16:12;;;;;;;117.05;52.25;;;;;;;;;;5089688;28;20028;-83
2021/12/09 08:18:53;;;;;;;131.50;59.72;;;;;;;;;;5072993;28;20033;-85
2021/12/09 08:21:20;;;;;;;131.65;54.88;;;;;;;;;;5074074;28;20025;-87
2021/12/09 08:23:47;;;;;;;131.63;55.90;;;;;;;;;;5073412;28;20025;-83
2021/12/09 08:26:12;;;;;;;123.13;53.72;;;;;;;;;;5074197;28;20034;-84
2021/12/09 08:28:38;;;;;;;124.65;52.40;;;;;;;;;;5072707;28;20028;-83
2021/12/09 08:31:11;;;;;;;161.80;58.22;;;;;;;;;;5073672;28;20028;-83
2021/12/09 08:33:36;;;;;;;124.15;52.47;;;;;;;;;;5073742;28;20054;-87
2021/12/09 08:36:05;;;;;;;119.78;48.53;;;;;;;;;;5071250;28;20040;-82
2021/12/09 08:38:30;;;;;;;138.40;50.47;;;;;;;;;;5072721;28;20039;-82
2021/12/09 08:40:56;;;;;;;148.45;55.22;;;;;;;;;;5071082;28;20024;-84
2021/12/09 08:43:23;;;;;;;123.88;47.78;;;;;;;;;;5072830;28;20380;-85
2021/12/09 08:45:50;;;;;;;119.05;49.70;;;;;;;;;;5073214;28;20067;-83
2021/12/09 08:48:17;;;;;;;133.55;56.22;;;;;;;;;;5070160;28;20032;-85
2021/12/09 08:50:44;;;;;;;135.70;58.20;;;;;;;;;;5071905;28;20043;-84
2021/12/09 08:53:13;;;;;;;129.82;52.78;;;;;;;;;;5073206;28;20081;-83
2021/12/09 08:55:40;;;;;;;124.82;51.63;;;;;;;;;;5066628;28;20044;-83
2021/12/09 08:58:07;;;;;;;130.32;50.17;;;;;;;;;;5071302;28;20450;-84
2021/12/09 09:00:34;;;;;;;108.95;45.47;;;;;;;;;;5072524;28;20044;-82
2021/12/09 09:03:01;;;;;;;114.60;48.45;;;;;;;;;;5071539;28;20043;-83
2021/12/09 09:05:28;;;;;;;123.60;48.58;;;;;;;;;;5072858;28;20109;-84
2021/12/09 09:07:54;;;;;;;104.38;45.45;;;;;;;;;;5071407;28;20028;-83
2021/12/09 09:10:23;;;;;;;115.35;47.75;;;;;;;;;;5075168;28;20020;-83
2021/12/09 09:12:49;;;;;;;111.95;50.40;;;;;;;;;;5084065;28;20024;-82
2021/12/09 09:15:16;;;;;;;128.07;49.88;;;;;;;;;;5072787;28;20049;-82
2021/12/09 09:17:42;;;;;;;132.18;54.92;;;;;;;;;;5070296;28;20028;-82
2021/12/09 09:20:10;;;;;;;124.75;51.55;;;;;;;;;;5069370;28;20040;-83
2021/12/09 09:22:37;;;;;;;120.88;50.78;;;;;;;;;;5068644;28;20474;-83
2021/12/09 09:25:06;;;;;;;119.97;51.85;;;;;;;;;;5072224;28;20387;-82
2021/12/09 09:27:32;;;;;;;117.50;49.88;;;;;;;;;;5072456;28;20024;-82
2021/12/09 09:29:57;;;;;;;119.20;49.42;;;;;;;;;;5071047;28;20477;-81
2021/12/09 09:32:23;;;;;;;121.50;50.70;;;;;;;;;;5071061;28;20391;-81
2021/12/09 09:34:49;;;;;;;119.07;50.22;;;;;;;;;;5071792;28;20067;-81
2021/12/09 09:37:15;;;;;;;123.50;50.53;;;;;;;;;;5071985;28;20020;-81
2021/12/09 09:39:43;;;;;;;123.30;49.65;;;;;;;;;;5067860;28;20043;-83
2021/12/09 09:44:46;;;;;;;172.48;73.90;;;;;;;;;;5067216;28;20028;-82
2021/12/09 09:47:12;;;;;;;140.18;59.85;;;;;;;;;;5067557;28;20127;-81
2021/12/09 09:49:39;;;;;;;141.25;60.90;;;;;;;;;;5075279;28;20115;-82
2021/12/09 09:52:05;;;;;;;136.82;60.97;;;;;;;;;;5066617;28;20024;-81
2021/12/09 09:54:32;;;;;;;133.68;62.10;;;;;;;;;;5070502;28;20425;-81
2021/12/09 09:56:57;;;;;;;362.83;142.20;;;;;;;;;;5069767;28;20020;-81
2021/12/09 09:59:23;;;;;;;176.30;67.35;;;;;;;;;;5070898;28;20073;-81
2021/12/09 10:01:52;;;;;;;153.77;67.07;;;;;;;;;;5069130;28;20028;-81
2021/12/09 10:04:26;;;;;;;153.80;67.60;;;;;;;;;;5070750;28;20221;-81
2021/12/09 10:06:53;;;;;;;145.85;61.83;;;;;;;;;;5070105;28;20074;-81
2021/12/09 10:09:18;;;;;;;153.73;64.78;;;;;;;;;;5067369;28;20488;-82
2021/12/09 10:11:44;;;;;;;157.30;66.80;;;;;;;;;;5070193;28;20033;-81
2021/12/09 10:14:11;;;;;;;155.75;64.55;;;;;;;;;;5069680;28;20028;-82
2021/12/09 10:16:38;;;;;;;176.65;69.82;;;;;;;;;;5068363;28;20024;-82
2021/12/09 10:19:17;;;;;;;149.65;65.75;;;;;;;;;;5069957;28;20085;-81
2021/12/09 10:21:44;;;;;;;153.02;67.20;;;;;;;;;;5068644;28;20016;-81
2021/12/09 10:24:10;;;;;;;126.00;53.30;;;;;;;;;;5061800;28;20025;-81
2021/12/09 10:26:41;;;;;;;111.78;50.60;;;;;;;;;;5069742;28;20051;-81
2021/12/09 10:29:19;;;;;;;95.72;42.25;;;;;;;;;;5069269;28;20377;-80
2021/12/09 10:31:59;;;;;;;58.03;28.05;;;;;;;;;;5068185;28;20029;-80
2021/12/09 10:37:20;;;;;;;59.67;25.02;;;;;;;;;;5068882;28;20029;-81
2021/12/09 10:40:00;;;;;;;57.60;27.40;;;;;;;;;;5069031;28;20451;-81
2021/12/09 10:42:30;;;;;;;62.65;26.95;;;;;;;;;;5068179;28;20028;-81
2021/12/09 10:44:59;;;;;;;59.65;27.77;;;;;;;;;;5066378;28;20151;-81
2021/12/09 10:51:07;;;;;;;68.68;33.25;;;;;;;;;;5069364;28;20025;-80
2021/12/09 10:53:18;;;;;;;77.35;35.58;;;;;;;;;;5054719;28;20139;-81
2021/12/09 10:55:45;;;;;;;79.50;35.25;;;;;;;;;;5062181;28;20404;-81
2021/12/09 10:58:14;;;;;;;85.30;38.40;;;;;;;;;;5068299;28;20032;-82
2021/12/09 11:00:55;;;;;;;84.93;39.42;;;;;;;;;;5067481;28;20236;-82
2021/12/09 11:03:28;;;;;;;92.05;42.72;;;;;;;;;;5067599;28;20032;-83
2021/12/09 11:06:15;;;;;;;97.03;46.10;;;;;;;;;;5068365;28;20049;-82
2021/12/09 11:08:47;;;;;;;221.32;102.50;;;;;;;;;;5069021;28;20063;-83
2021/12/09 11:11:14;;;;;;;220.15;122.47;;;;;;;;;;5068521;28;20036;-82
2021/12/09 11:13:46;;;;;;;95.43;48.67;;;;;;;;;;5070628;28;20028;-82
2021/12/09 11:16:22;;;;;;;114.20;55.42;;;;;;;;;;5068774;28;20043;-81
2021/12/09 11:18:48;;;;;;;106.32;48.13;;;;;;;;;;5065614;28;20040;-82
2021/12/09 11:21:43;;;;;;;109.60;48.78;;;;;;;;;;5070705;28;20433;-80
2021/12/09 11:24:17;;;;;;;116.72;47.58;;;;;;;;;;5068150;28;20074;-82
2021/12/09 11:26:58;;;;;;;99.15;45.22;;;;;;;;;;5071795;28;20024;-82
2021/12/09 11:29:38;;;;;;;110.40;44.80;;;;;;;;;;5071559;28;20112;-82
2021/12/09 11:34:58;;;;;;;95.03;42.95;;;;;;;;;;5073803;28;20043;-81
2021/12/09 11:39:54;;;;;;;107.57;46.70;;;;;;;;;;5073688;28;20020;-81
2021/12/09 11:42:27;;;;;;;108.50;48.33;;;;;;;;;;5069606;28;20082;-83
2021/12/09 11:44:53;;;;;;;106.38;48.53;;;;;;;;;;5073137;28;20067;-79
2021/12/09 11:47:18;;;;;;;99.18;44.55;;;;;;;;;;5072546;28;20036;-80
2021/12/09 11:49:44;;;;;;;108.22;47.33;;;;;;;;;;5072556;28;20039;-82
2021/12/09 11:52:14;;;;;;;113.35;49.38;;;;;;;;;;5072350;28;20024;-79
2021/12/09 11:54:44;;;;;;;106.57;48.63;;;;;;;;;;5069061;28;20056;-81
2021/12/09 11:57:18;;;;;;;117.80;52.43;;;;;;;;;;5072789;28;20028;-81
2021/12/09 12:11:28;;;;;;;113.70;46.60;;;;;;;;;;5050782;28;20051;-81
2021/12/09 12:14:11;;;;;;;110.53;49.22;;;;;;;;;;5071075;28;20043;-80
2021/12/09 12:16:55;;;;;;;103.70;46.75;;;;;;;;;;5071434;28;20025;-81
2021/12/09 12:19:52;;;;;;;200.75;98.10;;;;;;;;;;5072758;28;20463;-79
2021/12/09 12:42:15;;;;;;;125.28;53.47;;;;;;;;;;5073208;28;20048;-79
2021/12/09 12:48:13;;;;;;;140.90;59.13;;;;;;;;;;5070044;28;20561;-82
2021/12/09 12:50:37;;;;;;;137.57;58.80;;;;;;;;;;5072561;28;20029;-81
2021/12/09 12:53:32;;;;;;;143.52;62.83;;;;;;;;;;5071639;28;20536;-80
2021/12/09 12:56:13;;;;;;;134.68;61.92;;;;;;;;;;5071998;28;20025;-81
2021/12/09 12:59:00;;;;;;;148.23;61.50;;;;;;;;;;5063127;28;20024;-82
2021/12/09 13:01:25;;;;;;;165.27;70.53;;;;;;;;;;5072000;28;20039;-83
2021/12/09 13:03:55;;;;;;;155.93;65.57;;;;;;;;;;5072193;28;20153;-81
2021/12/09 13:06:46;;;;;;;166.90;73.95;;;;;;;;;;5072585;28;20117;-83
2021/12/09 13:09:48;;;;;;;138.65;61.55;;;;;;;;;;5071721;28;20103;-80
2021/12/09 13:12:46;;;;;;;133.15;54.70;;;;;;;;;;5072455;28;20086;-83
2021/12/09 13:15:23;;;;;;;135.18;58.42;;;;;;;;;;5072352;28;20046;-83
2021/12/09 13:17:59;;;;;;;151.10;63.35;;;;;;;;;;5071644;28;20363;-81
2021/12/09 13:20:37;;;;;;;163.43;71.60;;;;;;;;;;5071955;28;20091;-81
2021/12/09 13:23:24;;;;;;;155.32;68.35;;;;;;;;;;5071445;28;20035;-80
2021/12/09 13:26:16;;;;;;;162.60;69.75;;;;;;;;;;5071858;28;20385;-84
2021/12/09 13:29:08;;;;;;;106.68;46.13;;;;;;;;;;5069320;28;20486;-81
2021/12/09 13:32:38;;;;;;;113.43;53.20;;;;;;;;;;5071043;28;20067;-80
2021/12/09 13:34:48;;;;;;;132.82;60.95;;;;;;;;;;5069019;28;20071;-83
2021/12/09 13:47:53;;;;;;;119.43;53.90;;;;;;;;;;5066405;28;20066;-81
2021/12/09 13:50:48;;;;;;;103.13;43.55;;;;;;;;;;5069483;28;20044;-82
2021/12/09 13:55:58;;;;;;;205.73;94.90;;;;;;;;;;5071443;28;20028;-80
2021/12/09 13:58:24;;;;;;;63.88;29.35;;;;;;;;;;5071264;28;20017;-80
2021/12/09 14:00:51;;;;;;;50.15;23.65;;;;;;;;;;5070056;28;20051;-82
2021/12/09 14:03:23;;;;;;;41.25;20.70;;;;;;;;;;5070452;28;20032;-82
2021/12/09 14:28:35;;;;;;;53.65;28.73;;;;;;;;;;5104738;27;20841;-81
2021/12/09 14:31:01;;;;;;;45.05;24.08;;;;;;;;;;5105410;28;20040;-80
2021/12/09 14:33:27;;;;;;;45.50;23.65;;;;;;;;;;5103753;28;20038;-80
2021/12/09 14:36:05;;;;;;;47.90;25.50;;;;;;;;;;5104634;28;20055;-80
2021/12/09 14:38:32;;;;;;;39.22;22.88;;;;;;;;;;5104463;28;20039;-83
2021/12/09 14:41:03;;;;;;;33.67;19.15;;;;;;;;;;5105055;28;20062;-79
2021/12/09 14:43:28;;;;;;;36.15;21.00;;;;;;;;;;5086977;28;20465;-79
2021/12/09 14:45:54;;;;;;;34.35;20.60;;;;;;;;;;5052338;28;20126;-81
2021/12/09 14:48:30;;;;;;;27.85;14.65;;;;;;;;;;4965540;28;20061;-79
2021/12/09 14:50:55;;;;;;;31.85;16.13;;;;;;;;;;4965831;28;20027;-80
2021/12/09 14:53:39;;;;;;;25.80;14.95;;;;;;;;;;4965853;28;20023;-82
2021/12/09 14:56:17;;;;;;;23.38;12.52;;;;;;;;;;4963446;28;20035;-82
2021/12/09 14:58:42;;;;;;;22.60;12.43;;;;;;;;;;4965763;28;20045;-81
2021/12/09 15:01:15;;;;;;;23.67;13.25;;;;;;;;;;4962055;28;20028;-82
2021/12/09 15:03:52;;;;;;;20.63;12.13;;;;;;;;;;4964435;28;20058;-82
2021/12/09 15:06:26;;;;;;;15.63;9.50;;;;;;;;;;4965086;28;20039;-83
2021/12/09 15:08:57;;;;;;;17.88;8.48;;;;;;;;;;4964408;28;20441;-82
2021/12/09 15:11:24;;;;;;;14.60;9.40;;;;;;;;;;4965248;28;20532;-80
2021/12/09 15:13:51;;;;;;;19.15;11.27;;;;;;;;;;4969438;28;20029;-82
2021/12/09 15:16:20;;;;;;;19.05;10.57;;;;;;;;;;4972337;28;20031;-82
2021/12/09 15:18:45;;;;;;;19.52;11.80;;;;;;;;;;4967169;28;20174;-82
2021/12/09 15:21:22;;;;;;;18.08;11.00;;;;;;;;;;4972651;28;20041;-82
2021/12/09 15:23:52;;;;;;;20.20;13.18;;;;;;;;;;4970910;28;20023;-82
2021/12/09 15:26:50;;;;;;;32.25;17.25;;;;;;;;;;4953411;28;20498;-81
2021/12/09 15:29:21;;;;;;;28.58;14.00;;;;;;;;;;4956571;28;20050;-81
2021/12/09 15:32:01;;;;;;;27.35;15.18;;;;;;;;;;4958661;28;20084;-79
2021/12/09 15:34:37;;;;;;;27.63;15.00;;;;;;;;;;4957407;28;20107;-81
2021/12/09 15:37:12;;;;;;;30.90;17.00;;;;;;;;;;4960136;28;20096;-81
2021/12/09 16:18:40;;;;;;;24.70;14.68;;;;;;;;;;5097587;27;1339032;-83
2021/12/09 16:21:14;;;;;;;21.25;12.77;;;;;;;;;;5114260;28;20126;-82
2021/12/09 16:23:42;;;;;;;26.48;15.40;;;;;;;;;;5068487;28;80452;-83
2021/12/09 16:26:09;;;;;;;23.95;13.55;;;;;;;;;;5095797;28;20067;-83
2021/12/09 16:28:36;;;;;;;23.05;13.77;;;;;;;;;;5096171;28;20024;-85
2021/12/09 16:31:05;;;;;;;21.65;13.85;;;;;;;;;;5082550;28;20028;-85